Time;durP1;ratioP1;P1;durP2;ratioP2;P2;SDS_P1;SDS_P2;PMS_P1;PMS_P2;Temp;Humidity;BMP_temperature;BMP_pressure;BME280_temperature;BME280_humidity;BME280_pressure;Samples;Min_cycle;Max_cycle;Signal;HPM_P1;HPM_P2
2023/08/18 00:02:22;;;;;;;7.10;2.22;;;;;;;;;;4973412;28;20023;-66
2023/08/18 00:04:48;;;;;;;4.88;2.13;;;;;;;;;;4973591;28;20528;-68
2023/08/18 00:07:14;;;;;;;6.07;2.38;;;;;;;;;;4973359;28;20162;-63
2023/08/18 00:09:40;;;;;;;7.35;2.28;;;;;;;;;;4973131;28;20023;-68
2023/08/18 00:12:06;;;;;;;6.78;2.40;;;;;;;;;;4973284;28;20473;-69
2023/08/18 00:14:33;;;;;;;6.47;2.53;;;;;;;;;;4976557;28;20023;-67
2023/08/18 00:16:58;;;;;;;4.95;2.40;;;;;;;;;;4992663;28;20030;-67
2023/08/18 00:19:24;;;;;;;5.88;2.47;;;;;;;;;;4992713;28;20093;-67
2023/08/18 00:21:50;;;;;;;7.38;2.42;;;;;;;;;;4992789;28;20026;-66
2023/08/18 00:24:15;;;;;;;4.93;2.65;;;;;;;;;;4990236;28;20565;-63
2023/08/18 00:26:41;;;;;;;6.03;2.63;;;;;;;;;;4973351;28;20448;-63
2023/08/18 00:29:07;;;;;;;6.32;2.70;;;;;;;;;;4973118;28;20096;-63
2023/08/18 00:31:32;;;;;;;6.18;2.50;;;;;;;;;;4976518;28;20400;-66
2023/08/18 00:33:57;;;;;;;4.40;2.40;;;;;;;;;;4976896;28;20098;-63
2023/08/18 00:36:25;;;;;;;3.92;2.35;;;;;;;;;;4976731;28;20433;-66
2023/08/18 00:38:50;;;;;;;5.32;2.53;;;;;;;;;;4976685;28;20127;-69
2023/08/18 00:41:16;;;;;;;4.43;2.38;;;;;;;;;;4987268;28;20447;-66
2023/08/18 00:43:41;;;;;;;5.57;2.80;;;;;;;;;;4996149;28;20486;-63
2023/08/18 00:46:08;;;;;;;4.43;2.45;;;;;;;;;;4996203;28;20376;-63
2023/08/18 00:48:36;;;;;;;4.03;2.45;;;;;;;;;;4991914;28;20073;-66
2023/08/18 00:51:01;;;;;;;5.75;2.88;;;;;;;;;;4976561;28;20027;-69
2023/08/18 00:53:30;;;;;;;4.88;2.47;;;;;;;;;;4976211;28;20158;-68
2023/08/18 00:55:55;;;;;;;10.38;2.60;;;;;;;;;;4976503;28;20027;-64
2023/08/18 00:58:21;;;;;;;4.93;2.50;;;;;;;;;;4976211;28;20379;-69
2023/08/18 01:00:49;;;;;;;5.13;2.63;;;;;;;;;;4976274;28;20038;-69
2023/08/18 01:03:15;;;;;;;6.90;2.90;;;;;;;;;;4976419;28;20033;-69
2023/08/18 01:05:40;;;;;;;4.63;2.50;;;;;;;;;;4976182;28;20117;-63
2023/08/18 01:08:06;;;;;;;6.40;2.70;;;;;;;;;;4976160;28;20169;-71
2023/08/18 01:10:39;;;;;;;10.82;3.42;;;;;;;;;;4976193;28;20056;-65
2023/08/18 01:13:32;;;;;;;5.18;2.17;;;;;;;;;;4976142;28;20030;-66
2023/08/18 01:16:01;;;;;;;7.13;2.60;;;;;;;;;;4990772;28;20038;-63
2023/08/18 01:18:27;;;;;;;6.97;2.60;;;;;;;;;;4995508;28;20025;-63
2023/08/18 01:20:54;;;;;;;6.57;2.60;;;;;;;;;;4995587;28;20030;-64
2023/08/18 01:23:20;;;;;;;6.97;3.00;;;;;;;;;;4995098;28;20042;-66
2023/08/18 01:25:45;;;;;;;4.78;2.78;;;;;;;;;;4981167;28;20023;-65
2023/08/18 01:28:10;;;;;;;5.80;2.60;;;;;;;;;;4975943;28;20039;-69
2023/08/18 01:30:45;;;;;;;6.10;2.80;;;;;;;;;;4975666;28;20023;-63
2023/08/18 01:33:35;;;;;;;4.43;2.50;;;;;;;;;;4975898;28;20049;-72
2023/08/18 01:36:05;;;;;;;6.45;2.72;;;;;;;;;;4975676;28;20030;-71
2023/08/18 01:38:32;;;;;;;5.30;2.30;;;;;;;;;;4974561;28;20030;-70
2023/08/18 01:40:58;;;;;;;7.60;2.85;;;;;;;;;;4982895;28;20042;-73
2023/08/18 01:43:24;;;;;;;6.43;2.70;;;;;;;;;;4994674;28;20026;-69
2023/08/18 01:45:49;;;;;;;4.65;2.65;;;;;;;;;;4995117;28;20026;-72
2023/08/18 01:48:15;;;;;;;3.90;2.47;;;;;;;;;;4993226;28;20081;-72
2023/08/18 01:50:40;;;;;;;6.50;2.92;;;;;;;;;;4975337;28;20026;-71
2023/08/18 01:53:05;;;;;;;6.45;2.70;;;;;;;;;;4975329;28;20116;-72
2023/08/18 01:55:31;;;;;;;4.45;2.85;;;;;;;;;;4975306;28;20099;-71
2023/08/18 01:57:56;;;;;;;7.57;2.85;;;;;;;;;;4975472;28;20027;-72
2023/08/18 02:00:22;;;;;;;4.25;2.47;;;;;;;;;;4975184;28;20027;-72
2023/08/18 02:02:47;;;;;;;7.30;2.58;;;;;;;;;;4975311;28;20042;-64
2023/08/18 02:05:13;;;;;;;3.08;2.40;;;;;;;;;;4975038;28;20388;-72
2023/08/18 02:07:38;;;;;;;6.45;2.78;;;;;;;;;;4975003;28;20033;-72
2023/08/18 02:10:04;;;;;;;6.47;2.40;;;;;;;;;;4973931;28;20026;-68
2023/08/18 02:12:30;;;;;;;6.93;2.55;;;;;;;;;;4974867;28;20488;-72
2023/08/18 02:14:55;;;;;;;6.70;2.50;;;;;;;;;;4981385;28;20030;-71
2023/08/18 02:17:21;;;;;;;5.97;2.78;;;;;;;;;;4994446;28;20030;-70
2023/08/18 02:19:46;;;;;;;4.07;2.42;;;;;;;;;;4976271;28;20106;-64
2023/08/18 02:22:11;;;;;;;4.57;2.53;;;;;;;;;;4974919;28;20019;-69
2023/08/18 02:24:37;;;;;;;9.20;2.67;;;;;;;;;;4974472;28;20133;-71
2023/08/18 02:27:02;;;;;;;4.65;2.35;;;;;;;;;;4974764;28;20041;-69
2023/08/18 02:29:28;;;;;;;7.18;2.75;;;;;;;;;;4974707;28;20038;-69
2023/08/18 02:31:53;;;;;;;4.63;2.67;;;;;;;;;;4974820;28;20118;-70
2023/08/18 02:34:19;;;;;;;6.00;2.60;;;;;;;;;;4974340;28;20039;-71
2023/08/18 02:36:44;;;;;;;4.18;2.65;;;;;;;;;;4974483;28;20106;-69
2023/08/18 02:39:10;;;;;;;5.85;2.83;;;;;;;;;;4974571;28;20034;-68
2023/08/18 02:41:35;;;;;;;5.85;2.50;;;;;;;;;;4987433;28;20042;-68
2023/08/18 02:44:03;;;;;;;5.45;2.92;;;;;;;;;;4993763;28;20045;-68
2023/08/18 02:46:28;;;;;;;5.32;2.60;;;;;;;;;;4993872;28;20031;-68
2023/08/18 02:48:53;;;;;;;7.05;2.70;;;;;;;;;;4986734;28;20033;-70
2023/08/18 02:51:19;;;;;;;7.68;3.03;;;;;;;;;;4974462;28;20133;-70
2023/08/18 02:53:48;;;;;;;6.80;2.85;;;;;;;;;;4974032;28;20557;-72
2023/08/18 02:56:14;;;;;;;7.17;2.80;;;;;;;;;;4974203;28;20086;-72
2023/08/18 02:58:39;;;;;;;7.20;2.80;;;;;;;;;;4974277;28;20546;-66
2023/08/18 03:01:06;;;;;;;5.78;2.60;;;;;;;;;;4974276;28;20039;-68
2023/08/18 03:03:31;;;;;;;7.60;2.72;;;;;;;;;;4973638;28;20102;-66
2023/08/18 03:06:02;;;;;;;6.18;2.58;;;;;;;;;;4974164;28;20105;-68
2023/08/18 03:08:28;;;;;;;6.13;2.67;;;;;;;;;;4974010;28;20027;-71
2023/08/18 03:10:58;;;;;;;8.15;2.92;;;;;;;;;;4974190;28;20025;-71
2023/08/18 03:13:24;;;;;;;4.97;2.72;;;;;;;;;;4973922;28;20023;-68
2023/08/18 03:15:50;;;;;;;8.40;2.60;;;;;;;;;;4987533;28;20034;-65
2023/08/18 03:18:15;;;;;;;6.63;2.95;;;;;;;;;;4992784;28;20026;-71
2023/08/18 03:20:41;;;;;;;8.25;3.17;;;;;;;;;;4993366;28;20113;-68
2023/08/18 03:23:07;;;;;;;7.00;2.97;;;;;;;;;;4992939;28;20145;-69
2023/08/18 03:25:32;;;;;;;5.57;2.80;;;;;;;;;;4979134;28;20117;-72
2023/08/18 03:27:58;;;;;;;8.20;2.80;;;;;;;;;;4973881;28;20104;-69
2023/08/18 03:30:23;;;;;;;8.25;3.45;;;;;;;;;;4973728;28;20023;-68
2023/08/18 03:32:51;;;;;;;7.38;3.10;;;;;;;;;;4973383;28;20034;-68
2023/08/18 03:35:17;;;;;;;7.63;3.10;;;;;;;;;;4973721;28;20023;-69
2023/08/18 03:37:42;;;;;;;7.35;3.17;;;;;;;;;;4973620;28;20030;-66
2023/08/18 03:40:08;;;;;;;7.22;3.10;;;;;;;;;;4974833;28;20027;-66
2023/08/18 03:42:33;;;;;;;10.98;3.42;;;;;;;;;;4993052;28;20116;-63
2023/08/18 03:44:59;;;;;;;3.78;2.70;;;;;;;;;;4993027;28;20481;-64
2023/08/18 03:47:25;;;;;;;10.50;3.47;;;;;;;;;;4992845;28;20494;-64
2023/08/18 03:49:50;;;;;;;9.13;3.40;;;;;;;;;;4978599;28;20023;-63
2023/08/18 03:52:16;;;;;;;5.30;2.75;;;;;;;;;;4973345;28;20496;-62
2023/08/18 03:54:41;;;;;;;6.63;3.03;;;;;;;;;;4973331;28;20023;-62
2023/08/18 03:57:07;;;;;;;5.30;3.00;;;;;;;;;;4973619;28;20025;-72
2023/08/18 03:59:32;;;;;;;8.00;3.20;;;;;;;;;;4973378;28;20030;-68
2023/08/18 04:01:58;;;;;;;7.05;3.25;;;;;;;;;;4973223;28;20022;-70
2023/08/18 04:04:23;;;;;;;7.57;3.40;;;;;;;;;;4973681;28;20038;-68
2023/08/18 04:06:49;;;;;;;7.88;3.30;;;;;;;;;;4977386;28;20066;-69
2023/08/18 04:09:17;;;;;;;7.15;3.38;;;;;;;;;;4976993;28;20426;-68
2023/08/18 04:11:43;;;;;;;6.72;3.30;;;;;;;;;;4977098;28;20489;-63
2023/08/18 04:14:10;;;;;;;6.28;3.42;;;;;;;;;;4977270;28;20046;-62
2023/08/18 04:16:35;;;;;;;8.13;3.15;;;;;;;;;;4996260;28;20490;-62
2023/08/18 04:19:01;;;;;;;10.13;3.30;;;;;;;;;;4996632;28;20026;-63
2023/08/18 04:21:27;;;;;;;7.65;3.10;;;;;;;;;;4996486;28;20388;-62
2023/08/18 04:23:52;;;;;;;5.25;2.95;;;;;;;;;;4996419;28;20506;-65
2023/08/18 04:26:18;;;;;;;4.70;2.80;;;;;;;;;;4977778;28;20036;-62
2023/08/18 04:28:44;;;;;;;11.60;3.40;;;;;;;;;;4976936;28;20045;-62
2023/08/18 04:31:11;;;;;;;6.28;3.05;;;;;;;;;;4976496;28;20035;-62
2023/08/18 04:33:36;;;;;;;4.78;2.78;;;;;;;;;;4976602;28;20484;-62
2023/08/18 04:36:03;;;;;;;6.00;2.97;;;;;;;;;;4976816;28;20038;-62
2023/08/18 04:38:28;;;;;;;5.82;3.05;;;;;;;;;;4976674;28;20476;-62
2023/08/18 04:41:01;;;;;;;7.25;3.38;;;;;;;;;;4983817;28;20116;-67
2023/08/18 04:43:29;;;;;;;7.30;3.15;;;;;;;;;;4995992;28;20077;-65
2023/08/18 04:45:55;;;;;;;6.38;3.30;;;;;;;;;;4995872;28;20031;-63
2023/08/18 04:48:21;;;;;;;5.82;2.85;;;;;;;;;;4993442;28;20014;-62
2023/08/18 04:50:47;;;;;;;10.00;3.20;;;;;;;;;;4976570;28;20034;-62
2023/08/18 04:53:12;;;;;;;6.95;3.03;;;;;;;;;;4976449;28;20119;-67
2023/08/18 04:55:39;;;;;;;9.13;3.28;;;;;;;;;;4975986;28;20031;-65
2023/08/18 04:58:04;;;;;;;6.82;3.10;;;;;;;;;;4976460;28;20030;-69
2023/08/18 05:00:30;;;;;;;6.50;2.90;;;;;;;;;;4976186;28;20027;-63
2023/08/18 05:02:55;;;;;;;5.45;2.75;;;;;;;;;;4976437;28;20476;-62
2023/08/18 05:05:21;;;;;;;5.07;3.42;;;;;;;;;;4976250;28;20018;-65
2023/08/18 05:07:46;;;;;;;9.20;3.22;;;;;;;;;;4976393;28;20472;-65
2023/08/18 05:10:12;;;;;;;11.70;3.35;;;;;;;;;;4976183;28;20027;-63
2023/08/18 05:12:37;;;;;;;5.43;2.83;;;;;;;;;;4976107;28;20495;-73
2023/08/18 05:15:04;;;;;;;5.57;3.00;;;;;;;;;;4983405;28;20092;-69
2023/08/18 05:17:29;;;;;;;8.18;3.45;;;;;;;;;;4995262;28;20046;-65
2023/08/18 05:19:55;;;;;;;9.48;3.30;;;;;;;;;;4995651;28;20022;-63
2023/08/18 05:22:24;;;;;;;9.15;3.00;;;;;;;;;;4995596;28;20034;-68
2023/08/18 05:24:49;;;;;;;8.52;3.38;;;;;;;;;;4988430;28;20051;-62
2023/08/18 05:27:16;;;;;;;7.40;3.50;;;;;;;;;;4975869;28;20385;-62
2023/08/18 05:29:41;;;;;;;7.57;3.05;;;;;;;;;;4975733;28;20503;-66
2023/08/18 05:32:07;;;;;;;6.60;3.33;;;;;;;;;;4975863;28;20039;-63
2023/08/18 05:34:32;;;;;;;7.70;3.22;;;;;;;;;;4975556;28;20515;-62
2023/08/18 05:36:58;;;;;;;7.00;3.15;;;;;;;;;;4975848;28;20026;-62
2023/08/18 05:39:23;;;;;;;6.80;3.17;;;;;;;;;;4975638;28;20050;-62
2023/08/18 05:41:49;;;;;;;7.32;2.97;;;;;;;;;;4990587;28;20030;-62
2023/08/18 05:44:14;;;;;;;7.88;3.08;;;;;;;;;;4994901;28;20022;-63
2023/08/18 05:46:40;;;;;;;8.98;2.95;;;;;;;;;;4995171;28;20391;-63
2023/08/18 05:49:08;;;;;;;6.22;3.17;;;;;;;;;;4986387;28;20548;-63
2023/08/18 05:51:34;;;;;;;8.27;2.97;;;;;;;;;;4975492;28;20035;-63
2023/08/18 05:54:00;;;;;;;7.05;3.03;;;;;;;;;;4973975;28;20035;-62
2023/08/18 05:56:25;;;;;;;7.68;3.05;;;;;;;;;;4975369;28;20105;-63
2023/08/18 05:58:50;;;;;;;9.25;3.20;;;;;;;;;;4975104;28;20026;-63
2023/08/18 06:01:17;;;;;;;8.68;3.20;;;;;;;;;;4975445;28;20066;-66
2023/08/18 06:03:43;;;;;;;11.07;3.45;;;;;;;;;;4975299;28;20058;-62
2023/08/18 06:06:08;;;;;;;9.98;3.08;;;;;;;;;;4974012;28;20473;-63
2023/08/18 06:08:36;;;;;;;7.72;3.20;;;;;;;;;;4975258;28;20074;-62
2023/08/18 06:11:04;;;;;;;9.70;3.45;;;;;;;;;;4975340;28;20027;-64
2023/08/18 06:13:32;;;;;;;10.57;3.10;;;;;;;;;;4974757;28;20042;-62
2023/08/18 06:16:04;;;;;;;7.68;2.97;;;;;;;;;;4989528;28;20023;-63
2023/08/18 06:18:29;;;;;;;5.80;3.20;;;;;;;;;;4994552;28;20529;-62
2023/08/18 06:20:55;;;;;;;7.30;3.53;;;;;;;;;;4994423;28;20121;-62
2023/08/18 06:23:20;;;;;;;6.95;2.88;;;;;;;;;;4994093;28;20047;-62
2023/08/18 06:25:45;;;;;;;9.15;3.65;;;;;;;;;;4979515;28;20174;-63
2023/08/18 06:28:11;;;;;;;5.70;3.05;;;;;;;;;;4974003;28;20026;-65
2023/08/18 06:30:36;;;;;;;10.70;3.45;;;;;;;;;;4974725;28;20185;-63
2023/08/18 06:33:02;;;;;;;4.82;3.28;;;;;;;;;;4974969;28;20027;-63
2023/08/18 06:35:28;;;;;;;6.53;3.35;;;;;;;;;;4974386;28;20117;-69
2023/08/18 06:37:53;;;;;;;6.32;3.60;;;;;;;;;;4974834;28;20058;-63
2023/08/18 06:40:19;;;;;;;6.88;3.20;;;;;;;;;;4977118;28;20057;-63
2023/08/18 06:42:44;;;;;;;9.30;4.03;;;;;;;;;;4993840;28;20034;-62
2023/08/18 06:45:10;;;;;;;8.63;3.63;;;;;;;;;;4993233;28;20027;-63
2023/08/18 06:47:35;;;;;;;12.57;3.38;;;;;;;;;;4974333;28;20025;-63
2023/08/18 06:50:01;;;;;;;5.88;3.60;;;;;;;;;;4974447;28;20118;-63
2023/08/18 06:52:28;;;;;;;6.90;3.33;;;;;;;;;;4974197;28;20109;-65
2023/08/18 06:54:53;;;;;;;9.27;3.13;;;;;;;;;;4974170;28;20058;-65
2023/08/18 06:57:19;;;;;;;10.05;3.45;;;;;;;;;;4974459;28;20031;-62
2023/08/18 06:59:44;;;;;;;11.98;3.50;;;;;;;;;;4974249;28;20033;-61
2023/08/18 07:02:10;;;;;;;5.78;3.33;;;;;;;;;;4974209;28;20030;-61
2023/08/18 07:04:36;;;;;;;8.60;3.72;;;;;;;;;;4974083;28;20038;-63
2023/08/18 07:07:03;;;;;;;7.50;4.00;;;;;;;;;;4974123;28;20023;-62
2023/08/18 07:09:28;;;;;;;6.05;3.85;;;;;;;;;;4973832;28;20031;-68
2023/08/18 07:11:54;;;;;;;8.98;3.97;;;;;;;;;;4974246;28;20023;-63
2023/08/18 07:14:19;;;;;;;9.13;3.85;;;;;;;;;;4975378;28;20122;-68
2023/08/18 07:16:45;;;;;;;10.98;4.47;;;;;;;;;;4993481;28;20030;-63
2023/08/18 07:19:10;;;;;;;11.15;4.47;;;;;;;;;;4993454;28;20085;-62
2023/08/18 07:21:35;;;;;;;13.30;4.60;;;;;;;;;;4993360;28;20533;-62
2023/08/18 07:24:01;;;;;;;12.80;4.45;;;;;;;;;;4992669;28;20507;-64
2023/08/18 07:26:27;;;;;;;13.60;3.97;;;;;;;;;;4973706;28;20031;-63
2023/08/18 07:28:52;;;;;;;5.00;2.83;;;;;;;;;;4973855;28;20089;-60
2023/08/18 07:31:18;;;;;;;8.20;3.30;;;;;;;;;;4973692;28;20022;-61
2023/08/18 07:33:44;;;;;;;5.68;2.90;;;;;;;;;;4973576;28;20033;-61
2023/08/18 07:36:09;;;;;;;8.43;3.42;;;;;;;;;;4973734;28;20030;-60
2023/08/18 07:38:34;;;;;;;6.03;3.20;;;;;;;;;;4973431;28;20461;-60
2023/08/18 07:41:00;;;;;;;10.77;3.17;;;;;;;;;;4981797;28;20034;-61
2023/08/18 07:43:26;;;;;;;9.35;2.95;;;;;;;;;;4993060;28;20022;-61
2023/08/18 07:45:51;;;;;;;9.75;3.00;;;;;;;;;;4993382;28;20043;-61
2023/08/18 07:48:17;;;;;;;7.28;3.03;;;;;;;;;;4990884;28;20022;-61
2023/08/18 07:50:43;;;;;;;8.27;2.97;;;;;;;;;;4973674;28;20027;-62
2023/08/18 07:53:08;;;;;;;8.43;3.20;;;;;;;;;;4973359;28;20033;-61
2023/08/18 07:55:34;;;;;;;7.03;3.40;;;;;;;;;;4973557;28;20465;-61
2023/08/18 07:57:59;;;;;;;7.30;3.10;;;;;;;;;;4973566;28;20031;-62
2023/08/18 08:00:26;;;;;;;9.18;3.13;;;;;;;;;;4973497;28;20031;-62
2023/08/18 08:02:52;;;;;;;7.75;3.20;;;;;;;;;;4973601;28;20082;-61
2023/08/18 08:05:19;;;;;;;11.82;3.40;;;;;;;;;;4973505;28;20060;-61
2023/08/18 08:07:45;;;;;;;7.97;3.05;;;;;;;;;;4972976;28;20023;-61
2023/08/18 08:10:10;;;;;;;11.82;3.42;;;;;;;;;;4973533;28;20034;-61
2023/08/18 08:12:38;;;;;;;14.55;3.42;;;;;;;;;;4973387;28;20404;-61
2023/08/18 08:15:04;;;;;;;8.48;3.10;;;;;;;;;;4979450;28;20101;-61
2023/08/18 08:17:30;;;;;;;5.25;3.00;;;;;;;;;;4992736;28;20113;-62
2023/08/18 08:19:59;;;;;;;9.15;3.20;;;;;;;;;;4992917;28;20101;-61
2023/08/18 08:22:24;;;;;;;9.70;2.78;;;;;;;;;;4992328;28;20019;-61
2023/08/18 08:24:50;;;;;;;7.00;3.13;;;;;;;;;;4985901;28;20047;-62
2023/08/18 08:27:17;;;;;;;7.80;3.35;;;;;;;;;;4973265;28;20381;-61
2023/08/18 08:29:43;;;;;;;7.90;2.90;;;;;;;;;;4973187;28;20042;-62
2023/08/18 08:32:08;;;;;;;10.05;3.47;;;;;;;;;;4973105;28;20034;-64
2023/08/18 08:34:34;;;;;;;12.30;3.45;;;;;;;;;;4973132;28;20113;-64
2023/08/18 08:36:59;;;;;;;9.90;3.35;;;;;;;;;;4973130;28;20055;-62
2023/08/18 08:39:24;;;;;;;11.70;3.58;;;;;;;;;;4973278;28;20072;-61
2023/08/18 08:41:50;;;;;;;6.30;3.22;;;;;;;;;;4988149;28;20050;-61
2023/08/18 08:44:15;;;;;;;7.18;3.40;;;;;;;;;;4992278;28;20093;-62
2023/08/18 08:46:41;;;;;;;7.90;3.38;;;;;;;;;;4992731;28;20029;-71
2023/08/18 08:49:07;;;;;;;7.88;3.35;;;;;;;;;;4983978;28;20023;-70
2023/08/18 08:51:40;;;;;;;7.75;3.30;;;;;;;;;;4974728;28;20019;-61
2023/08/18 08:54:08;;;;;;;7.00;3.67;;;;;;;;;;4976584;28;20089;-61
2023/08/18 08:56:34;;;;;;;16.77;3.40;;;;;;;;;;4976615;28;20038;-61
2023/08/18 08:59:01;;;;;;;9.50;3.20;;;;;;;;;;4976351;28;20037;-61
2023/08/18 09:01:26;;;;;;;10.55;3.50;;;;;;;;;;4976312;28;20069;-61
2023/08/18 09:03:53;;;;;;;9.55;3.00;;;;;;;;;;4976396;28;20058;-61
2023/08/18 09:06:18;;;;;;;8.32;3.42;;;;;;;;;;4975999;28;20108;-62
2023/08/18 09:08:44;;;;;;;8.55;3.03;;;;;;;;;;4976219;28;20428;-61
2023/08/18 09:11:10;;;;;;;9.68;3.22;;;;;;;;;;4976483;28;20027;-61
2023/08/18 09:13:35;;;;;;;8.82;3.10;;;;;;;;;;4976071;28;20030;-62
2023/08/18 09:16:04;;;;;;;8.32;3.08;;;;;;;;;;4991392;28;20037;-61
2023/08/18 09:18:34;;;;;;;10.35;3.60;;;;;;;;;;4995550;28;20029;-61
2023/08/18 09:21:01;;;;;;;7.30;2.90;;;;;;;;;;4995256;28;20042;-61
2023/08/18 09:23:27;;;;;;;8.93;3.40;;;;;;;;;;4994818;28;20455;-61
2023/08/18 09:25:56;;;;;;;15.45;3.47;;;;;;;;;;4980308;28;20517;-63
2023/08/18 09:28:22;;;;;;;8.30;3.55;;;;;;;;;;4975862;28;20027;-61
2023/08/18 09:30:48;;;;;;;6.82;3.60;;;;;;;;;;4975768;28;20084;-61
2023/08/18 09:33:16;;;;;;;8.85;3.55;;;;;;;;;;4975905;28;20019;-61
2023/08/18 09:35:41;;;;;;;6.97;3.55;;;;;;;;;;4975436;28;20041;-61
2023/08/18 09:38:12;;;;;;;7.65;3.88;;;;;;;;;;4975777;28;20071;-61
2023/08/18 09:40:37;;;;;;;12.30;4.57;;;;;;;;;;4981058;28;20037;-61
2023/08/18 09:43:03;;;;;;;5.43;3.20;;;;;;;;;;4995074;28;20034;-62
2023/08/18 09:45:29;;;;;;;8.27;3.65;;;;;;;;;;4995017;28;20022;-61
2023/08/18 09:47:56;;;;;;;11.93;4.38;;;;;;;;;;4993535;28;20126;-61
2023/08/18 09:50:27;;;;;;;11.18;3.95;;;;;;;;;;4974755;28;20101;-61
2023/08/18 09:52:54;;;;;;;10.65;3.65;;;;;;;;;;4975568;28;20041;-62
2023/08/18 09:55:28;;;;;;;11.13;3.38;;;;;;;;;;4975286;28;20488;-62
2023/08/18 09:58:06;;;;;;;10.13;3.78;;;;;;;;;;4975524;28;20472;-62
2023/08/18 10:00:33;;;;;;;8.18;3.65;;;;;;;;;;4975391;28;20485;-67
2023/08/18 10:03:02;;;;;;;8.73;4.40;;;;;;;;;;4973135;28;20062;-63
2023/08/18 10:05:28;;;;;;;10.57;4.32;;;;;;;;;;4974832;28;20085;-62
2023/08/18 10:07:55;;;;;;;11.43;4.57;;;;;;;;;;4975139;28;20071;-63
2023/08/18 10:10:21;;;;;;;11.93;4.50;;;;;;;;;;4975039;28;20031;-63
2023/08/18 10:12:47;;;;;;;23.63;7.45;;;;;;;;;;4975141;28;20503;-63
2023/08/18 10:15:14;;;;;;;21.95;10.00;;;;;;;;;;4983677;28;20031;-63
2023/08/18 10:17:40;;;;;;;40.35;17.90;;;;;;;;;;4994246;28;20080;-62
2023/08/18 10:20:11;;;;;;;39.33;20.20;;;;;;;;;;4994207;28;20056;-63
2023/08/18 10:22:37;;;;;;;36.97;19.73;;;;;;;;;;4994297;28;20018;-62
2023/08/18 10:25:04;;;;;;;35.40;17.95;;;;;;;;;;4985802;28;20038;-63
2023/08/18 10:27:30;;;;;;;26.52;13.75;;;;;;;;;;4974441;28;20109;-63
2023/08/18 10:29:59;;;;;;;24.10;12.02;;;;;;;;;;4973581;28;20031;-63
2023/08/18 10:32:24;;;;;;;16.98;9.13;;;;;;;;;;4974346;28;20042;-63
2023/08/18 10:34:53;;;;;;;14.30;7.25;;;;;;;;;;4974686;28;20027;-63
2023/08/18 10:37:22;;;;;;;16.48;6.88;;;;;;;;;;4974753;28;20030;-63
2023/08/18 10:39:51;;;;;;;19.10;7.10;;;;;;;;;;4974696;28;20043;-62
2023/08/18 10:42:16;;;;;;;10.98;6.40;;;;;;;;;;4992853;28;20034;-62
2023/08/18 10:45:06;;;;;;;15.00;5.70;;;;;;;;;;4994057;28;20030;-63
2023/08/18 10:47:35;;;;;;;14.30;5.95;;;;;;;;;;4993413;28;20053;-62
2023/08/18 10:50:04;;;;;;;14.37;4.73;;;;;;;;;;4978077;28;20023;-62
2023/08/18 10:52:30;;;;;;;10.95;4.70;;;;;;;;;;4974253;28;20098;-63
2023/08/18 10:54:56;;;;;;;11.07;5.22;;;;;;;;;;4974335;28;20429;-63
2023/08/18 10:57:23;;;;;;;10.48;4.40;;;;;;;;;;4974237;28;20031;-63
2023/08/18 10:59:48;;;;;;;7.32;4.40;;;;;;;;;;4974244;28;20388;-63
2023/08/18 11:02:15;;;;;;;12.77;4.57;;;;;;;;;;4974097;28;20023;-65
2023/08/18 11:04:41;;;;;;;13.38;4.30;;;;;;;;;;4974210;28;20086;-63
2023/08/18 11:07:06;;;;;;;7.30;4.32;;;;;;;;;;4974110;28;20387;-63
2023/08/18 11:09:32;;;;;;;9.10;4.25;;;;;;;;;;4972792;28;20023;-63
2023/08/18 11:11:57;;;;;;;10.00;4.43;;;;;;;;;;4974196;28;20110;-63
2023/08/18 11:14:23;;;;;;;9.40;4.97;;;;;;;;;;4975368;28;20030;-63
2023/08/18 11:16:48;;;;;;;13.85;5.60;;;;;;;;;;4993326;28;20084;-63
2023/08/18 11:19:14;;;;;;;8.32;4.32;;;;;;;;;;4993108;28;20018;-63
2023/08/18 11:21:40;;;;;;;11.45;4.53;;;;;;;;;;4993483;28;20034;-63
2023/08/18 11:24:09;;;;;;;8.73;4.60;;;;;;;;;;4992049;28;20587;-64
2023/08/18 11:26:36;;;;;;;10.67;4.40;;;;;;;;;;4974015;28;20491;-62
2023/08/18 11:29:04;;;;;;;8.10;4.57;;;;;;;;;;4972719;28;20030;-62
2023/08/18 11:31:29;;;;;;;12.18;4.60;;;;;;;;;;4973373;28;20183;-63
2023/08/18 11:33:55;;;;;;;10.95;4.90;;;;;;;;;;4973754;28;20034;-62
2023/08/18 11:36:21;;;;;;;8.63;4.00;;;;;;;;;;4973762;28;20070;-63
2023/08/18 11:38:49;;;;;;;9.65;4.50;;;;;;;;;;4973820;28;20070;-62
2023/08/18 11:41:15;;;;;;;11.30;4.43;;;;;;;;;;4983747;28;20388;-63
2023/08/18 11:43:41;;;;;;;10.65;4.53;;;;;;;;;;4993016;28;20026;-63
2023/08/18 11:46:07;;;;;;;6.50;3.95;;;;;;;;;;4992760;28;20025;-65
2023/08/18 11:48:32;;;;;;;8.00;4.18;;;;;;;;;;4988842;28;20031;-65
2023/08/18 11:50:59;;;;;;;8.45;4.60;;;;;;;;;;4973792;28;20038;-63
2023/08/18 11:53:25;;;;;;;9.52;4.03;;;;;;;;;;4973342;28;20086;-63
2023/08/18 11:55:51;;;;;;;8.30;4.15;;;;;;;;;;4973524;28;20027;-62
2023/08/18 11:58:17;;;;;;;11.38;4.22;;;;;;;;;;4973381;28;20031;-63
2023/08/18 12:00:47;;;;;;;9.13;4.45;;;;;;;;;;4973432;28;20460;-65
2023/08/18 12:03:20;;;;;;;7.78;4.20;;;;;;;;;;4973355;28;20416;-63
2023/08/18 12:05:46;;;;;;;10.45;4.07;;;;;;;;;;4973345;28;20472;-63
2023/08/18 12:08:11;;;;;;;10.35;4.45;;;;;;;;;;4973660;28;20043;-63
2023/08/18 12:10:37;;;;;;;11.43;4.60;;;;;;;;;;4973408;28;20030;-63
2023/08/18 12:13:03;;;;;;;7.47;4.10;;;;;;;;;;4973316;28;20452;-63
2023/08/18 12:15:29;;;;;;;7.70;4.35;;;;;;;;;;4983134;28;20036;-63
2023/08/18 12:17:54;;;;;;;8.77;4.40;;;;;;;;;;4992941;28;20375;-63
2023/08/18 12:20:21;;;;;;;7.70;4.00;;;;;;;;;;4992740;28;20034;-63
2023/08/18 12:22:48;;;;;;;10.98;4.90;;;;;;;;;;4992749;28;20026;-63
2023/08/18 12:25:13;;;;;;;10.52;4.38;;;;;;;;;;4982941;28;20031;-63
2023/08/18 12:27:39;;;;;;;8.32;4.03;;;;;;;;;;4977033;28;20035;-64
2023/08/18 12:30:06;;;;;;;9.93;4.53;;;;;;;;;;4976580;28;20496;-63
2023/08/18 12:32:32;;;;;;;11.48;4.28;;;;;;;;;;4977030;28;20042;-65
2023/08/18 12:34:58;;;;;;;8.55;4.20;;;;;;;;;;4976828;28;20038;-69
2023/08/18 12:37:23;;;;;;;11.98;4.32;;;;;;;;;;4975651;28;20033;-70
2023/08/18 12:39:49;;;;;;;9.75;4.03;;;;;;;;;;4976895;28;20384;-65
2023/08/18 12:42:15;;;;;;;8.82;4.15;;;;;;;;;;4994934;28;20385;-67
2023/08/18 12:44:41;;;;;;;8.90;4.07;;;;;;;;;;4996144;28;20105;-69
2023/08/18 12:47:07;;;;;;;12.13;3.60;;;;;;;;;;4995961;28;20109;-72
2023/08/18 12:49:33;;;;;;;7.10;3.90;;;;;;;;;;4983989;28;20027;-65
2023/08/18 12:51:58;;;;;;;9.13;4.32;;;;;;;;;;4976764;28;20027;-69
2023/08/18 12:54:28;;;;;;;6.07;3.95;;;;;;;;;;4976387;28;20049;-70
2023/08/18 12:56:53;;;;;;;9.63;4.60;;;;;;;;;;4976663;28;20054;-74
2023/08/18 12:59:20;;;;;;;9.40;4.30;;;;;;;;;;4976466;28;20133;-72
2023/08/18 13:01:46;;;;;;;10.32;4.22;;;;;;;;;;4976349;28;20111;-73
2023/08/18 13:04:11;;;;;;;9.75;4.43;;;;;;;;;;4976314;28;20113;-70
2023/08/18 13:06:37;;;;;;;7.30;3.70;;;;;;;;;;4976390;28;20026;-67
2023/08/18 13:09:03;;;;;;;6.72;4.05;;;;;;;;;;4976323;28;20469;-70
2023/08/18 13:11:28;;;;;;;9.70;3.88;;;;;;;;;;4976242;28;20038;-71
2023/08/18 13:13:54;;;;;;;10.55;4.40;;;;;;;;;;4975934;28;20037;-72
2023/08/18 13:16:19;;;;;;;7.72;4.40;;;;;;;;;;4993515;28;20133;-71
2023/08/18 13:18:44;;;;;;;10.35;4.18;;;;;;;;;;4995726;28;20026;-70
2023/08/18 13:21:10;;;;;;;9.57;4.45;;;;;;;;;;4995724;28;20424;-68
2023/08/18 13:23:35;;;;;;;8.23;4.38;;;;;;;;;;4995296;28;20398;-70
2023/08/18 13:26:01;;;;;;;10.38;4.40;;;;;;;;;;4979323;28;20077;-70
2023/08/18 13:28:26;;;;;;;9.27;4.53;;;;;;;;;;4975734;28;20042;-68
2023/08/18 13:30:51;;;;;;;6.28;4.05;;;;;;;;;;4975782;28;20030;-68
2023/08/18 13:33:17;;;;;;;9.80;4.20;;;;;;;;;;4976027;28;20031;-72
2023/08/18 13:35:42;;;;;;;10.50;3.88;;;;;;;;;;4975443;28;20469;-76
2023/08/18 13:38:08;;;;;;;9.88;4.28;;;;;;;;;;4976479;28;20046;-64
2023/08/18 13:40:33;;;;;;;9.38;4.20;;;;;;;;;;4975443;28;20031;-64
2023/08/18 13:42:59;;;;;;;8.60;4.40;;;;;;;;;;4976108;28;20520;-64
2023/08/18 13:45:24;;;;;;;8.50;4.47;;;;;;;;;;4976255;28;20018;-63
2023/08/18 13:47:49;;;;;;;6.68;4.10;;;;;;;;;;4976437;28;20456;-64
2023/08/18 13:50:15;;;;;;;8.93;4.07;;;;;;;;;;4990818;28;20049;-63
2023/08/18 13:52:40;;;;;;;7.15;4.25;;;;;;;;;;4978565;28;20372;-64
2023/08/18 13:55:06;;;;;;;13.10;4.15;;;;;;;;;;4988247;28;20445;-64
2023/08/18 13:57:31;;;;;;;6.95;4.28;;;;;;;;;;4984631;28;20439;-64
2023/08/18 13:59:57;;;;;;;9.13;5.05;;;;;;;;;;4981385;28;20481;-64
2023/08/18 14:02:22;;;;;;;8.07;4.15;;;;;;;;;;4990959;28;20027;-63
2023/08/18 14:04:48;;;;;;;12.85;4.25;;;;;;;;;;4974738;28;20039;-69
2023/08/18 14:07:13;;;;;;;8.02;4.05;;;;;;;;;;4991449;28;20486;-63
2023/08/18 14:09:39;;;;;;;8.82;4.63;;;;;;;;;;4980178;28;20034;-63
2023/08/18 14:12:05;;;;;;;9.82;4.40;;;;;;;;;;4985780;28;20167;-62
2023/08/18 14:14:30;;;;;;;18.45;5.65;;;;;;;;;;4985981;28;20030;-62
2023/08/18 14:16:59;;;;;;;11.65;5.82;;;;;;;;;;4978732;28;20338;-69
2023/08/18 14:19:24;;;;;;;179.15;28.67;;;;;;;;;;4990643;28;20534;-64
2023/08/18 14:21:49;;;;;;;110.45;17.90;;;;;;;;;;4980469;28;20394;-63
2023/08/18 14:24:15;;;;;;;60.70;13.38;;;;;;;;;;4982690;28;20101;-63
2023/08/18 14:26:40;;;;;;;14.52;6.45;;;;;;;;;;4974574;28;20034;-63
2023/08/18 14:29:06;;;;;;;27.02;8.10;;;;;;;;;;4971601;28;20019;-63
2023/08/18 14:31:31;;;;;;;7.40;4.43;;;;;;;;;;4972118;28;20037;-69
2023/08/18 14:33:57;;;;;;;67.80;15.77;;;;;;;;;;4971828;28;20030;-63